Terminal Aerodrome Forecast
Issued by NWS

Home | Current Version | Previous Version | Text Only | Print | Product List | Glossary On
Versions: 1 2 3 4 5 6 7 8 9 10 11 12 13 14
000
FTUS45 KPSR 231731
TAFBLH
TAF
KBLH 231731Z 2318/2418 18015G20KT P6SM SCT100 SCT200
     FM240400 18011KT P6SM BKN150
     FM241100 16009KT P6SM VCSH SCT080 BKN120=

USA.gov is the U.S. government's official web portal to all federal, state and local government web resources and services.